createdAt,value
2018-05-10T08:18:32.343Z,18.90
2018-05-10T08:20:59.853Z,18.90
2018-05-10T08:23:27.310Z,18.80
2018-05-10T08:25:57.486Z,18.80
2018-05-10T08:28:24.958Z,18.70
2018-05-10T08:30:52.521Z,18.20
2018-05-10T08:33:21.439Z,18.20
2018-05-10T08:35:49.686Z,18.70
2018-05-10T08:38:17.429Z,18.70
2018-05-10T08:40:48.533Z,18.90
2018-05-10T08:43:16.835Z,19.40
2018-05-10T08:45:46.234Z,19.30
2018-05-10T08:48:13.853Z,19.80
2018-05-10T08:50:42.098Z,19.70
2018-05-10T08:53:09.550Z,19.70
2018-05-10T08:55:37.534Z,20.40
2018-05-10T08:58:04.993Z,20.40
2018-05-10T09:00:33.326Z,19.80
2018-05-10T09:03:00.777Z,19.80
2018-05-10T09:05:28.262Z,19.50
2018-05-10T09:07:56.677Z,20.00
2018-05-10T09:10:24.922Z,19.90
2018-05-10T09:12:52.486Z,19.90
2018-05-10T09:15:19.967Z,20.20
2018-05-10T09:17:48.170Z,20.10
2018-05-10T09:20:15.829Z,20.10
2018-05-10T09:22:44.185Z,19.50
2018-05-10T09:25:14.364Z,20.40
2018-05-10T09:27:41.815Z,20.30
2018-05-10T09:30:09.298Z,19.50
2018-05-10T09:32:37.735Z,19.70
2018-05-10T09:35:06.193Z,19.60
2018-05-10T09:37:33.698Z,19.70
2018-05-10T09:40:01.257Z,19.70
2018-05-10T09:42:28.931Z,19.70
2018-05-10T09:44:56.425Z,20.10
2018-05-10T09:47:23.925Z,20.20
2018-05-10T09:49:51.428Z,20.40
2018-05-10T09:52:19.053Z,20.30
2018-05-10T09:54:46.509Z,20.30
2018-05-10T09:57:14.058Z,20.30
2018-05-10T09:59:41.604Z,20.10
2018-05-10T10:02:09.073Z,19.40
2018-05-10T10:04:36.534Z,18.90
2018-05-10T10:07:04.098Z,18.50
2018-05-10T10:09:31.554Z,18.70
2018-05-10T10:11:59.091Z,18.50
2018-05-10T10:14:26.562Z,18.60
2018-05-10T10:16:54.926Z,18.70
2018-05-10T10:19:23.211Z,18.90
2018-05-10T10:21:50.673Z,18.90
2018-05-10T10:24:18.142Z,18.90
2018-05-10T10:26:46.371Z,18.40
2018-05-10T10:29:24.239Z,18.40
2018-05-10T10:31:52.650Z,18.10
2018-05-10T10:34:20.233Z,17.90
2018-05-10T10:36:47.680Z,18.00
2018-05-10T10:39:15.222Z,18.00
2018-05-10T10:41:42.781Z,18.20
2018-05-10T10:44:10.565Z,18.00
2018-05-10T10:46:38.000Z,18.40
2018-05-10T10:49:05.443Z,18.50
2018-05-10T10:51:32.913Z,18.40
2018-05-10T10:54:00.509Z,17.80
2018-05-10T10:56:27.948Z,17.50
2018-05-10T10:58:56.377Z,17.70
2018-05-10T14:48:06.732Z,18.30
2018-05-10T14:50:34.205Z,18.30
2018-05-10T14:53:01.768Z,18.50
2018-05-10T14:55:29.310Z,19.00
2018-05-10T14:57:56.865Z,19.50
2018-05-10T15:00:24.437Z,19.70
2018-05-10T15:02:52.016Z,19.80
2018-05-10T15:05:19.542Z,19.90
2018-05-10T15:07:46.990Z,20.50
2018-05-10T15:10:14.559Z,20.10
2018-05-10T15:12:42.111Z,19.70
2018-05-10T15:15:09.605Z,19.20
2018-05-10T15:17:37.879Z,19.50
2018-05-10T15:20:06.117Z,19.80
2018-05-10T15:22:33.666Z,19.70
2018-05-10T15:25:01.124Z,19.60
2018-05-10T15:27:28.582Z,19.80
2018-05-10T15:29:59.818Z,19.60
2018-05-10T15:32:27.607Z,19.40
2018-05-10T15:34:55.056Z,19.00
2018-05-10T15:37:22.654Z,18.80
2018-05-10T15:39:50.358Z,19.00
2018-05-10T15:42:17.818Z,18.90
2018-05-10T15:44:46.244Z,18.50
